createdAt,value
2023-02-25T00:00:19.563Z,67.83
2023-02-25T00:02:51.244Z,67.96
2023-02-25T00:05:20.077Z,68.09
2023-02-25T00:07:51.435Z,68.18
2023-02-25T00:10:20.218Z,68.28
2023-02-25T00:12:49.315Z,68.37
2023-02-25T00:15:17.594Z,68.40
2023-02-25T00:17:50.076Z,68.52
2023-02-25T00:20:21.119Z,68.56
2023-02-25T00:22:50.316Z,68.62
2023-02-25T00:25:19.208Z,68.65
2023-02-25T00:27:47.487Z,68.72
2023-02-25T00:30:16.996Z,68.83
2023-02-25T00:32:45.312Z,68.84
2023-02-25T00:35:16.530Z,68.91
2023-02-25T00:37:45.312Z,68.89
2023-02-25T00:40:15.442Z,68.86
2023-02-25T00:42:44.228Z,68.93
2023-02-25T00:45:12.814Z,68.91
2023-02-25T00:47:42.022Z,68.89
2023-02-25T00:50:14.595Z,68.98
2023-02-25T00:52:43.792Z,68.92
2023-02-25T00:55:16.172Z,68.91
2023-02-25T00:57:45.058Z,69.01
2023-02-25T01:00:16.690Z,68.95
2023-02-25T01:02:46.258Z,68.98
2023-02-25T01:05:17.073Z,68.97
2023-02-25T01:07:49.731Z,68.99
2023-02-25T01:10:21.296Z,69.01
2023-02-25T01:13:05.962Z,69.00
2023-02-25T01:15:36.288Z,69.11
2023-02-25T01:32:01.962Z,69.11
2023-02-25T01:34:31.132Z,69.08
2023-02-25T01:37:04.825Z,69.09
2023-02-25T01:39:34.941Z,69.12
2023-02-25T01:42:04.371Z,69.12
2023-02-25T01:44:35.294Z,69.24
2023-02-25T01:47:20.643Z,69.32
2023-02-25T01:49:49.700Z,69.42
2023-02-25T01:52:23.014Z,69.53
2023-02-25T01:54:56.062Z,69.62
2023-02-25T01:57:24.739Z,69.75
2023-02-25T01:59:54.245Z,69.78
2023-02-25T02:02:23.652Z,69.79
2023-02-25T02:04:53.777Z,69.87
2023-02-25T02:07:22.882Z,69.86
2023-02-25T02:09:57.325Z,69.78
2023-02-25T02:12:37.759Z,69.80
2023-02-25T02:15:08.413Z,69.85
2023-02-25T02:18:00.100Z,69.74
2023-02-25T02:20:58.402Z,69.74
2023-02-25T02:23:42.454Z,69.74
2023-02-25T02:26:29.035Z,69.73
2023-02-25T02:29:12.395Z,69.83
2023-02-25T02:31:53.783Z,69.91
2023-02-25T02:34:42.437Z,69.87
2023-02-25T02:37:15.644Z,69.92
2023-02-25T02:40:14.628Z,69.98
2023-02-25T02:42:55.812Z,70.05
2023-02-25T02:45:47.467Z,70.05
2023-02-25T02:48:19.609Z,70.05
2023-02-25T02:50:52.696Z,70.02
2023-02-25T02:53:25.378Z,70.07
2023-02-25T02:55:56.424Z,70.00
2023-02-25T02:58:45.071Z,70.12
2023-02-25T03:01:37.412Z,70.18
2023-02-25T03:04:08.257Z,70.24
2023-02-25T03:06:39.401Z,70.30
2023-02-25T03:09:32.254Z,70.43
2023-02-25T03:12:03.403Z,70.50
2023-02-25T03:14:36.438Z,70.56
2023-02-25T03:17:15.828Z,70.56
2023-02-25T03:20:21.180Z,70.60
2023-02-25T03:22:50.858Z,70.71
2023-02-25T03:25:29.722Z,70.64
2023-02-25T03:28:22.749Z,70.69
2023-02-25T03:31:01.969Z,70.73
2023-02-25T03:33:39.209Z,70.74
2023-02-25T03:36:12.779Z,70.70
2023-02-25T03:38:47.248Z,70.71
2023-02-25T03:41:16.128Z,70.74
2023-02-25T03:43:50.662Z,70.74
2023-02-25T03:46:21.723Z,70.65
2023-02-25T03:48:51.620Z,70.67
2023-02-25T03:51:24.297Z,70.51
2023-02-25T03:53:53.908Z,70.52
2023-02-25T03:56:28.003Z,70.50
2023-02-25T03:58:56.712Z,70.55
2023-02-25T04:01:28.819Z,70.43
2023-02-25T04:03:57.060Z,70.34
2023-02-25T04:06:25.919Z,70.28
2023-02-25T04:08:54.950Z,70.29
2023-02-25T04:11:24.248Z,70.33
2023-02-25T04:13:53.150Z,70.43
2023-02-25T04:16:22.083Z,70.36
2023-02-25T04:18:57.065Z,70.37
2023-02-25T04:21:35.995Z,70.31
2023-02-25T04:24:08.383Z,70.28
2023-02-25T04:26:36.756Z,70.33
2023-02-25T04:29:06.261Z,70.32
2023-02-25T04:31:36.686Z,70.46
2023-02-25T04:34:07.318Z,70.37
2023-02-25T04:36:36.116Z,70.40
2023-02-25T04:39:08.386Z,70.34
2023-02-25T04:41:38.356Z,70.37
2023-02-25T04:44:07.407Z,70.35
2023-02-25T04:46:38.972Z,70.30
2023-02-25T04:49:08.543Z,70.21
2023-02-25T04:51:39.157Z,70.25
2023-02-25T04:54:09.044Z,70.18
2023-02-25T04:56:37.994Z,70.14
2023-02-25T04:59:07.475Z,70.15
2023-02-25T05:01:37.785Z,70.07
2023-02-25T05:04:09.219Z,70.02
2023-02-25T05:06:39.755Z,69.95
2023-02-25T05:09:13.632Z,69.99
2023-02-25T05:11:46.633Z,69.93
2023-02-25T05:14:22.663Z,69.97
2023-02-25T05:16:52.624Z,69.87
2023-02-25T05:19:24.819Z,69.80
2023-02-25T05:22:02.988Z,69.76
2023-02-25T05:24:35.448Z,69.77
2023-02-25T05:27:10.214Z,69.64
2023-02-25T05:29:44.240Z,69.77
2023-02-25T05:32:13.844Z,69.79
2023-02-25T05:34:55.821Z,69.84
2023-02-25T05:37:31.991Z,69.80
2023-02-25T05:40:04.449Z,69.75
2023-02-25T05:42:38.064Z,69.81
2023-02-25T05:45:11.676Z,69.73
2023-02-25T05:47:43.475Z,69.79
2023-02-25T05:50:19.614Z,69.74
2023-02-25T05:53:13.367Z,69.64
2023-02-25T05:55:50.639Z,69.70
2023-02-25T05:58:22.140Z,69.58
2023-02-25T06:00:56.124Z,69.64
2023-02-25T06:03:28.004Z,69.58
2023-02-25T06:05:58.615Z,69.63
2023-02-25T06:08:51.135Z,69.58
2023-02-25T06:11:27.407Z,69.63
2023-02-25T06:14:02.903Z,69.59
2023-02-25T06:16:33.182Z,69.60
2023-02-25T06:19:10.391Z,69.66
2023-02-25T06:22:01.533Z,69.62
2023-02-25T06:24:51.640Z,69.59
2023-02-25T06:27:24.669Z,69.48
2023-02-25T06:30:16.721Z,69.30
2023-02-25T06:33:13.000Z,69.16
2023-02-25T06:35:52.908Z,68.97
2023-02-25T06:38:40.665Z,68.86
2023-02-25T06:41:16.008Z,68.71
2023-02-25T06:43:55.124Z,68.45
2023-02-25T06:46:28.070Z,68.29
2023-02-25T06:49:16.471Z,68.07
2023-02-25T06:51:58.979Z,67.82
2023-02-25T06:54:29.245Z,67.65
2023-02-25T06:57:17.568Z,67.44
2023-02-25T07:00:08.322Z,67.32
2023-02-25T07:02:57.630Z,67.32
2023-02-25T07:06:01.564Z,67.21
2023-02-25T07:09:02.562Z,67.17
2023-02-25T07:11:59.283Z,67.15
2023-02-25T07:14:51.885Z,67.06
2023-02-25T07:17:44.844Z,66.92
2023-02-25T07:20:32.538Z,66.85
2023-02-25T07:23:19.693Z,66.75
2023-02-25T07:26:04.153Z,66.50
2023-02-25T07:28:39.914Z,66.33
2023-02-25T07:31:17.565Z,66.39
2023-02-25T07:33:51.924Z,66.35
2023-02-25T07:36:21.133Z,66.38
2023-02-25T07:38:59.031Z,66.29
2023-02-25T07:41:33.639Z,66.28
2023-02-25T07:44:07.390Z,66.10
2023-02-25T07:47:23.678Z,65.92
2023-02-25T07:50:20.745Z,65.66
2023-02-25T08:05:41.854Z,64.41
2023-02-25T08:08:10.530Z,64.14
2023-02-25T08:10:38.910Z,63.88
2023-02-25T08:13:18.350Z,63.80
2023-02-25T08:15:47.795Z,63.81
2023-02-25T08:18:19.311Z,63.59
2023-02-25T08:20:49.642Z,63.41
2023-02-25T08:23:19.948Z,63.27
2023-02-25T08:25:53.167Z,63.26
2023-02-25T08:28:26.182Z,63.23
2023-02-25T08:30:56.165Z,63.24
2023-02-25T08:33:26.136Z,63.23
2023-02-25T08:36:11.268Z,63.15
2023-02-25T08:38:39.952Z,63.02
2023-02-25T08:41:09.140Z,62.89
2023-02-25T08:43:37.733Z,62.67
2023-02-25T08:46:07.035Z,62.62
2023-02-25T08:48:36.194Z,62.42
2023-02-25T08:51:08.844Z,62.54
2023-02-25T08:53:40.838Z,62.53
2023-02-25T08:56:11.203Z,62.49
2023-02-25T08:58:40.051Z,62.57
2023-02-25T09:01:13.308Z,62.45
2023-02-25T09:03:55.271Z,62.47
2023-02-25T09:06:28.035Z,62.26
2023-02-25T09:08:58.207Z,62.14
2023-02-25T09:11:27.004Z,61.99
2023-02-25T09:13:55.483Z,61.69
2023-02-25T09:16:23.970Z,61.51
2023-02-25T09:18:52.644Z,61.18
2023-02-25T09:21:24.611Z,60.92
2023-02-25T09:23:53.950Z,60.62
2023-02-25T09:26:22.809Z,60.53
2023-02-25T09:28:51.728Z,60.29
2023-02-25T09:31:20.528Z,60.09
2023-02-25T09:33:53.077Z,60.19
2023-02-25T09:36:21.667Z,60.15
2023-02-25T09:38:50.791Z,59.90
2023-02-25T09:41:29.374Z,59.55
2023-02-25T09:44:16.927Z,59.22
2023-02-25T09:46:50.526Z,59.14
2023-02-25T09:49:26.375Z,59.12
2023-02-25T09:52:01.706Z,59.19
2023-02-25T09:54:35.028Z,59.06
2023-02-25T09:57:03.694Z,58.94
2023-02-25T09:59:32.794Z,58.85
2023-02-25T10:02:33.971Z,58.76
2023-02-25T10:05:21.996Z,58.83
2023-02-25T10:08:07.800Z,58.64
2023-02-25T10:11:09.651Z,58.39
2023-02-25T10:13:54.620Z,58.31
2023-02-25T10:16:32.538Z,58.32
2023-02-25T10:19:10.016Z,58.20
2023-02-25T10:22:15.156Z,58.12
2023-02-25T10:24:57.161Z,57.87
2023-02-25T10:27:40.087Z,57.78
2023-02-25T10:30:12.093Z,57.68
2023-02-25T10:32:49.324Z,57.31
2023-02-25T10:35:29.121Z,57.06
2023-02-25T10:37:57.570Z,56.91
2023-02-25T10:40:29.445Z,56.81
2023-02-25T10:43:02.115Z,56.47
2023-02-25T10:45:33.052Z,56.36
2023-02-25T10:48:14.232Z,56.03
2023-02-25T10:50:46.124Z,55.78
2023-02-25T10:53:16.939Z,55.37
2023-02-25T10:55:55.062Z,54.67
2023-02-25T10:58:41.277Z,54.33
2023-02-25T11:01:23.357Z,53.98
2023-02-25T11:04:00.718Z,53.78
2023-02-25T11:06:35.682Z,53.63
2023-02-25T11:09:29.242Z,53.28
2023-02-25T11:12:01.313Z,52.69
2023-02-25T11:14:34.199Z,52.74
2023-02-25T11:17:15.379Z,52.53
2023-02-25T11:19:46.334Z,52.35
2023-02-25T11:22:19.002Z,52.16
2023-02-25T11:25:14.629Z,51.95
2023-02-25T11:27:45.328Z,52.03
2023-02-25T11:30:34.681Z,52.19
2023-02-25T11:33:05.983Z,52.28
2023-02-25T11:35:39.925Z,52.28
2023-02-25T11:38:26.315Z,52.18
2023-02-25T11:40:56.662Z,52.22
2023-02-25T11:43:36.390Z,52.34
2023-02-25T11:46:12.262Z,52.12
2023-02-25T11:49:11.355Z,52.17
2023-02-25T11:51:48.101Z,52.09
2023-02-25T11:54:30.512Z,52.19
2023-02-25T11:57:24.401Z,52.13
2023-02-25T12:00:29.874Z,52.21
2023-02-25T12:03:23.519Z,52.32
2023-02-25T12:06:43.373Z,51.96
2023-02-25T12:10:05.446Z,51.67
2023-02-25T12:13:07.541Z,51.44
2023-02-25T12:15:57.208Z,51.58
2023-02-25T12:18:37.214Z,51.79
2023-02-25T12:21:25.479Z,51.80
2023-02-25T12:24:20.507Z,51.74
2023-02-25T12:27:13.672Z,51.82
2023-02-25T12:30:02.038Z,52.07
2023-02-25T12:32:39.921Z,52.10
2023-02-25T12:35:51.332Z,52.60
2023-02-25T12:38:42.029Z,53.09
2023-02-25T12:41:29.449Z,53.42
2023-02-25T12:44:00.588Z,53.66
2023-02-25T12:46:35.021Z,53.88
2023-02-25T12:49:15.687Z,54.16
2023-02-25T12:52:16.411Z,54.34
2023-02-25T12:55:08.879Z,54.40
2023-02-25T12:57:59.167Z,54.28
2023-02-25T13:00:37.168Z,54.28
2023-02-25T13:03:27.679Z,54.36
2023-02-25T13:06:21.046Z,54.50
2023-02-25T13:09:07.757Z,54.41
2023-02-25T13:12:11.090Z,54.48
2023-02-25T13:15:03.391Z,54.60
2023-02-25T13:17:56.355Z,54.73
2023-02-25T13:20:39.376Z,54.72
2023-02-25T13:23:26.515Z,54.74
2023-02-25T13:26:07.088Z,54.65
2023-02-25T13:28:35.467Z,54.76
2023-02-25T13:31:13.551Z,55.10
2023-02-25T13:33:58.736Z,55.55
2023-02-25T13:36:51.891Z,55.84
2023-02-25T13:39:35.628Z,56.17
2023-02-25T13:42:27.466Z,56.45
2023-02-25T13:45:15.095Z,56.70
2023-02-25T13:48:01.397Z,57.00
2023-02-25T13:50:38.369Z,57.14
2023-02-25T13:53:17.720Z,57.35
2023-02-25T13:55:47.469Z,57.45
2023-02-25T13:58:25.343Z,57.47
2023-02-25T14:01:45.438Z,57.75
2023-02-25T14:04:33.781Z,57.96
2023-02-25T14:07:10.674Z,58.38
2023-02-25T14:09:40.455Z,58.52
2023-02-25T14:12:34.046Z,58.49
2023-02-25T14:15:09.000Z,58.75
2023-02-25T14:17:50.575Z,58.84
2023-02-25T14:20:22.344Z,59.11
2023-02-25T14:23:18.363Z,59.35
2023-02-25T14:26:11.626Z,59.67
2023-02-25T14:28:58.441Z,59.60
2023-02-25T14:31:51.668Z,59.80
2023-02-25T14:34:42.002Z,60.09
2023-02-25T14:37:38.247Z,60.30
2023-02-25T14:40:30.241Z,60.42
2023-02-25T14:43:06.277Z,60.24
2023-02-25T14:45:45.177Z,60.53
2023-02-25T14:48:36.489Z,60.80
2023-02-25T14:51:16.842Z,60.88
2023-02-25T14:54:11.482Z,61.03
2023-02-25T14:56:49.096Z,60.96
2023-02-25T15:00:02.684Z,60.72
2023-02-25T15:02:37.353Z,60.85
2023-02-25T15:05:43.364Z,61.20
2023-02-25T15:08:26.288Z,61.22
2023-02-25T15:11:16.586Z,61.03
2023-02-25T15:14:07.080Z,61.14
2023-02-25T15:16:42.019Z,61.21
2023-02-25T15:19:40.818Z,61.22
2023-02-25T15:22:28.352Z,61.38
2023-02-25T15:25:22.054Z,61.37
2023-02-25T15:27:57.296Z,61.65
2023-02-25T15:30:27.125Z,61.84
2023-02-25T15:33:25.037Z,62.06
2023-02-25T15:35:55.974Z,62.36
2023-02-25T15:38:42.688Z,62.50
2023-02-25T15:41:29.491Z,62.73
2023-02-25T15:44:00.285Z,63.06
2023-02-25T15:46:46.300Z,63.28
2023-02-25T15:49:28.354Z,63.31
2023-02-25T15:52:03.194Z,63.85
2023-02-25T15:54:33.508Z,64.26
2023-02-25T15:57:11.005Z,64.46
2023-02-25T15:59:49.523Z,64.85
2023-02-25T16:02:35.850Z,65.01
2023-02-25T16:05:24.500Z,65.32
2023-02-25T16:08:23.237Z,65.54
2023-02-25T16:10:53.512Z,65.74
2023-02-25T16:13:31.519Z,65.90
2023-02-25T16:16:01.331Z,66.02
2023-02-25T16:18:34.673Z,66.28
2023-02-25T16:21:11.082Z,66.62
2023-02-25T16:23:40.289Z,65.58
2023-02-25T16:26:34.574Z,64.19
2023-02-25T16:29:21.771Z,63.05
2023-02-25T16:31:58.372Z,62.54
2023-02-25T16:34:36.310Z,62.52
2023-02-25T16:37:12.848Z,62.51
2023-02-25T16:39:41.544Z,63.06
2023-02-25T16:42:13.701Z,63.73
2023-02-25T16:44:45.882Z,64.35
2023-02-25T16:47:24.807Z,65.01
2023-02-25T16:49:53.908Z,65.74
2023-02-25T16:52:48.810Z,66.33
2023-02-25T16:55:30.629Z,66.90
2023-02-25T16:58:14.574Z,67.58
2023-02-25T17:01:04.120Z,68.07
2023-02-25T17:04:12.341Z,68.58
2023-02-25T17:06:44.307Z,68.93
2023-02-25T17:09:23.214Z,69.35
2023-02-25T17:11:54.692Z,69.97
2023-02-25T17:14:23.284Z,70.62
2023-02-25T17:16:52.386Z,70.91
2023-02-25T17:19:20.973Z,71.20
2023-02-25T17:21:56.759Z,71.56
2023-02-25T17:24:29.415Z,71.80
2023-02-25T17:26:57.793Z,71.51
2023-02-25T17:29:36.719Z,71.42
2023-02-25T17:32:35.401Z,71.27
2023-02-25T17:35:06.444Z,71.13
2023-02-25T17:37:35.660Z,71.06
2023-02-25T17:40:05.255Z,71.08
2023-02-25T17:42:36.500Z,71.13
2023-02-25T17:45:09.398Z,71.17
2023-02-25T17:47:38.308Z,71.03
2023-02-25T17:50:22.944Z,71.01
2023-02-25T17:52:55.115Z,71.12
2023-02-25T17:55:28.176Z,71.29
2023-02-25T17:57:58.369Z,71.46
2023-02-25T18:00:31.245Z,71.56
2023-02-25T18:03:12.090Z,71.70
2023-02-25T18:05:51.569Z,71.69
2023-02-25T18:08:24.159Z,71.73
2023-02-25T18:11:26.642Z,71.82
2023-02-25T18:14:22.355Z,72.27
2023-02-25T18:17:14.250Z,72.36
2023-02-25T18:20:28.272Z,72.44
2023-02-25T18:22:59.961Z,72.39
2023-02-25T18:25:30.185Z,72.47
2023-02-25T18:27:58.767Z,72.54
2023-02-25T18:30:29.934Z,72.57
2023-02-25T18:32:59.470Z,72.65
2023-02-25T18:35:28.632Z,72.84
2023-02-25T18:37:57.678Z,72.88
2023-02-25T18:40:32.959Z,72.97
2023-02-25T18:43:01.745Z,73.19
2023-02-25T18:45:30.879Z,73.33
2023-02-25T18:48:02.731Z,73.49
2023-02-25T18:50:31.781Z,73.66
2023-02-25T18:53:00.744Z,73.72
2023-02-25T18:55:33.655Z,73.76
2023-02-25T18:58:12.425Z,73.80
2023-02-25T19:00:41.094Z,73.85
2023-02-25T19:03:12.265Z,73.98
2023-02-25T19:05:40.952Z,73.97
2023-02-25T19:08:14.335Z,74.02
2023-02-25T19:10:46.536Z,74.04
2023-02-25T19:13:37.526Z,74.06
2023-02-25T19:16:08.048Z,74.22
2023-02-25T19:18:41.648Z,74.41
2023-02-25T19:21:13.920Z,74.68
2023-02-25T19:23:43.900Z,74.97
2023-02-25T19:26:12.530Z,75.16
2023-02-25T19:28:41.010Z,75.24
2023-02-25T19:31:10.006Z,75.21
2023-02-25T19:33:39.208Z,75.31
2023-02-25T19:36:08.942Z,75.35
2023-02-25T19:38:37.200Z,75.45
2023-02-25T19:41:06.805Z,75.48
2023-02-25T19:43:35.186Z,75.56
2023-02-25T19:46:07.867Z,75.63
2023-02-25T19:48:36.449Z,75.71
2023-02-25T19:51:08.692Z,75.80
2023-02-25T19:53:38.741Z,75.98
2023-02-25T19:56:08.192Z,76.00
2023-02-25T19:58:36.974Z,76.04
2023-02-25T20:01:06.671Z,75.98
2023-02-25T20:03:36.386Z,75.97
2023-02-25T20:06:07.724Z,75.94
2023-02-25T20:08:37.628Z,75.99
2023-02-25T20:11:10.127Z,76.04
2023-02-25T20:13:38.795Z,76.01
2023-02-25T20:16:09.392Z,76.05
2023-02-25T20:18:38.203Z,76.04
2023-02-25T20:21:06.590Z,76.06
2023-02-25T20:23:35.604Z,76.05
2023-02-25T20:26:08.594Z,76.00
2023-02-25T20:28:38.504Z,76.02
2023-02-25T20:31:11.886Z,75.97
2023-02-25T20:33:40.500Z,75.99
2023-02-25T20:36:30.272Z,75.95
2023-02-25T20:39:29.069Z,76.04
2023-02-25T20:41:57.760Z,76.07
2023-02-25T20:44:26.425Z,76.10
2023-02-25T20:46:57.627Z,76.12
2023-02-25T20:49:26.073Z,76.17
2023-02-25T20:51:57.478Z,76.26
2023-02-25T20:54:27.773Z,76.25
2023-02-25T20:57:02.785Z,76.21
2023-02-25T20:59:31.471Z,76.14
2023-02-25T21:02:01.902Z,76.33
2023-02-25T21:04:32.441Z,76.45
2023-02-25T21:07:02.416Z,76.62
2023-02-25T21:09:34.536Z,76.78
2023-02-25T21:12:03.003Z,76.83
2023-02-25T21:14:31.384Z,76.82
2023-02-25T21:17:00.589Z,76.75
2023-02-25T21:19:30.910Z,76.65
2023-02-25T21:22:06.231Z,76.47
2023-02-25T21:24:36.887Z,76.49
2023-02-25T21:27:05.277Z,76.40
2023-02-25T21:29:36.128Z,76.29
2023-02-25T21:32:05.971Z,76.28
2023-02-25T21:34:49.596Z,76.32
2023-02-25T21:37:27.081Z,76.25
2023-02-25T21:40:07.095Z,76.22
2023-02-25T21:42:39.385Z,76.19
2023-02-25T21:45:56.148Z,76.05
2023-02-25T21:48:25.180Z,76.14
2023-02-25T21:50:53.783Z,76.15
2023-02-25T21:53:22.164Z,76.24
2023-02-25T21:55:55.618Z,76.25
2023-02-25T21:58:24.556Z,76.49
2023-02-25T22:00:52.843Z,76.40
2023-02-25T22:03:21.299Z,76.59
2023-02-25T22:05:49.703Z,76.56
2023-02-25T22:08:20.655Z,76.51
2023-02-25T22:10:49.141Z,76.61
2023-02-25T22:13:17.819Z,76.34
2023-02-25T22:15:48.260Z,76.40
2023-02-25T22:18:17.956Z,76.42
2023-02-25T22:20:50.138Z,76.58
2023-02-25T22:23:19.538Z,76.49
2023-02-25T22:25:48.218Z,76.50
2023-02-25T22:28:16.811Z,76.70
2023-02-25T22:30:47.999Z,76.63
2023-02-25T22:33:16.538Z,76.63
2023-02-25T22:35:54.793Z,76.54
2023-02-25T22:38:29.875Z,76.53
2023-02-25T22:40:58.420Z,76.45
2023-02-25T22:43:27.268Z,76.34
2023-02-25T22:46:26.464Z,76.35
2023-02-25T22:48:55.295Z,76.43
2023-02-25T22:51:27.241Z,76.36
2023-02-25T22:53:55.849Z,76.32
2023-02-25T22:56:24.697Z,76.32
2023-02-25T22:58:54.148Z,76.19
2023-02-25T23:01:23.354Z,76.24
2023-02-25T23:03:52.262Z,76.39
2023-02-25T23:06:24.919Z,76.31
2023-02-25T23:08:58.269Z,76.27
2023-02-25T23:11:31.149Z,76.18
2023-02-25T23:14:00.332Z,76.22
2023-02-25T23:16:31.536Z,76.21
2023-02-25T23:19:04.640Z,76.24
2023-02-25T23:21:33.670Z,76.18
2023-02-25T23:24:02.812Z,76.45
2023-02-25T23:26:35.999Z,76.57
2023-02-25T23:29:06.234Z,76.75
2023-02-25T23:31:39.345Z,76.60
2023-02-25T23:34:13.155Z,76.60
2023-02-25T23:36:43.179Z,76.51
2023-02-25T23:39:12.363Z,76.53
2023-02-25T23:41:40.725Z,76.49
2023-02-25T23:44:11.979Z,76.41
2023-02-25T23:46:43.056Z,76.37
2023-02-25T23:49:12.762Z,76.32
2023-02-25T23:51:42.706Z,76.11
2023-02-25T23:54:12.457Z,76.13
2023-02-25T23:56:40.733Z,76.08
2023-02-25T23:59:11.265Z,76.18
